Time;durP1;ratioP1;P1;durP2;ratioP2;P2;SDS_P1;SDS_P2;PMS_P1;PMS_P2;Temp;Humidity;BMP_temperature;BMP_pressure;BME280_temperature;BME280_humidity;BME280_pressure;Samples;Min_cycle;Max_cycle;Signal;HPM_P1;HPM_P2
2021/09/14 00:01:46;;;;;;;20.80;9.90;;;;;;;11.04;99.57;101854.31;5051251;28;20061;-72
2021/09/14 00:04:11;;;;;;;20.83;10.43;;;;;;;11.09;99.48;101852.16;5052257;28;20037;-72
2021/09/14 00:06:40;;;;;;;23.17;10.93;;;;;;;11.14;99.43;101845.59;5050898;28;20040;-71
2021/09/14 00:09:07;;;;;;;21.00;10.48;;;;;;;11.22;99.72;101845.88;5052179;28;20037;-72
2021/09/14 00:11:34;;;;;;;27.55;12.15;;;;;;;11.29;100.00;101849.75;5052140;28;20163;-71
2021/09/14 00:14:00;;;;;;;21.90;11.27;;;;;;;11.37;100.00;101851.84;5051488;28;20466;-72
2021/09/14 00:16:25;;;;;;;20.88;10.43;;;;;;;11.41;99.79;101850.63;5052262;28;20034;-72
2021/09/14 00:18:51;;;;;;;23.70;10.27;;;;;;;11.45;99.93;101846.78;5050361;28;20033;-72
2021/09/14 00:21:17;;;;;;;21.38;10.90;;;;;;;11.50;99.99;101851.72;5051900;28;20033;-72
2021/09/14 00:23:43;;;;;;;21.65;10.70;;;;;;;11.54;99.78;101840.72;5054812;28;20040;-72
2021/09/14 00:26:08;;;;;;;17.67;9.73;;;;;;;11.58;99.92;101847.47;5055849;28;20025;-72
2021/09/14 00:28:33;;;;;;;23.35;10.50;;;;;;;11.62;99.96;101851.59;5056359;28;20041;-72
2021/09/14 00:30:59;;;;;;;23.67;9.50;;;;;;;11.69;99.91;101856.44;5054831;28;20083;-72
2021/09/14 00:33:24;;;;;;;21.02;9.82;;;;;;;11.75;99.75;101855.97;5055900;28;20037;-72
2021/09/14 00:35:49;;;;;;;15.30;8.07;;;;;;;11.78;99.73;101853.06;5055088;28;20083;-72
2021/09/14 00:38:15;;;;;;;18.38;8.52;;;;;;;11.79;99.75;101846.75;5055996;28;20036;-72
2021/09/14 00:40:40;;;;;;;14.80;8.18;;;;;;;11.80;99.52;101848.44;5055549;28;20086;-72
2021/09/14 00:43:06;;;;;;;18.73;9.00;;;;;;;11.78;99.21;101845.91;5054949;28;20116;-72
2021/09/14 00:45:31;;;;;;;19.30;8.35;;;;;;;11.78;98.77;101847.72;5055761;28;20484;-72
2021/09/14 00:47:56;;;;;;;20.83;9.65;;;;;;;11.75;98.95;101846.16;5054837;28;20396;-72
2021/09/14 00:50:22;;;;;;;23.42;9.52;;;;;;;11.73;98.51;101847.22;5055129;28;20036;-72
2021/09/14 00:52:47;;;;;;;19.17;9.45;;;;;;;11.72;98.55;101845.53;5054804;28;20041;-72
2021/09/14 00:55:12;;;;;;;24.58;10.20;;;;;;;11.71;98.92;101838.53;5055334;28;20029;-72
2021/09/14 00:57:38;;;;;;;20.77;8.90;;;;;;;11.70;98.42;101834.16;5055451;28;20482;-72
2021/09/14 01:00:04;;;;;;;25.40;11.10;;;;;;;11.69;98.91;101841.31;5054516;28;20033;-72
2021/09/14 01:02:30;;;;;;;21.75;9.90;;;;;;;11.70;98.99;101839.47;5054736;28;20508;-72
2021/09/14 01:04:57;;;;;;;18.65;9.80;;;;;;;11.71;98.97;101827.84;5054599;28;20036;-72
2021/09/14 01:07:23;;;;;;;23.38;10.38;;;;;;;11.72;99.05;101824.19;5055217;28;20040;-72
2021/09/14 01:09:49;;;;;;;20.42;9.98;;;;;;;11.74;99.09;101822.28;5054246;28;20029;-72
2021/09/14 01:12:17;;;;;;;24.13;9.45;;;;;;;11.73;98.82;101817.91;5054987;28;20087;-72
2021/09/14 01:14:53;;;;;;;19.38;10.10;;;;;;;11.73;99.06;101818.75;5054913;28;20047;-72
2021/09/14 01:17:19;;;;;;;16.85;10.10;;;;;;;11.74;98.90;101820.44;5054946;28;20032;-72
2021/09/14 01:19:44;;;;;;;20.33;9.70;;;;;;;11.75;98.75;101816.00;5054594;28;20033;-72
2021/09/14 01:22:10;;;;;;;19.33;9.43;;;;;;;11.77;98.96;101814.88;5054231;28;20032;-72
2021/09/14 01:24:35;;;;;;;16.17;9.32;;;;;;;11.77;99.19;101820.19;5053393;28;20470;-72
2021/09/14 01:27:00;;;;;;;20.55;9.70;;;;;;;11.76;98.78;101810.53;5054112;28;20481;-72
2021/09/14 01:32:10;;;;;;;20.35;9.93;;;;;;;11.76;98.80;101815.00;5054122;28;20140;-72
2021/09/14 01:34:35;;;;;;;22.38;10.13;;;;;;;11.74;98.57;101808.94;5053395;28;20120;-72
2021/09/14 01:37:01;;;;;;;19.67;9.43;;;;;;;11.74;98.66;101807.13;5053633;28;20036;-72
2021/09/14 01:39:26;;;;;;;21.95;9.43;;;;;;;11.73;98.63;101810.75;5054767;28;20035;-72
2021/09/14 01:41:51;;;;;;;17.25;9.57;;;;;;;11.72;98.86;101811.75;5053457;28;20393;-72
2021/09/14 01:44:17;;;;;;;22.98;9.60;;;;;;;11.71;98.87;101807.38;5054448;28;20480;-72
2021/09/14 01:46:42;;;;;;;17.48;9.50;;;;;;;11.70;98.79;101804.81;5054576;28;20120;-72
2021/09/14 01:49:08;;;;;;;23.20;10.15;;;;;;;11.66;98.71;101801.56;5053694;28;20033;-72
2021/09/14 01:51:33;;;;;;;20.67;9.50;;;;;;;11.64;98.76;101800.81;5053947;28;20143;-72
2021/09/14 01:53:58;;;;;;;21.10;10.38;;;;;;;11.62;98.58;101797.44;5053685;28;20029;-72
2021/09/14 01:56:24;;;;;;;19.63;9.90;;;;;;;11.59;98.76;101797.69;5054482;28;20173;-72
2021/09/14 01:58:50;;;;;;;23.88;10.45;;;;;;;11.57;98.70;101795.16;5052578;28;20523;-72
2021/09/14 02:01:24;;;;;;;20.13;10.40;;;;;;;11.56;98.93;101796.13;5053129;28;20089;-72
2021/09/14 02:04:00;;;;;;;20.23;10.02;;;;;;;11.56;98.72;101801.44;5054090;28;20033;-72
2021/09/14 02:41:47;;;;;;;23.23;12.13;;;;;;;10.74;98.72;101759.00;5053359;28;20377;-72
2021/09/14 03:00:24;;;;;;;31.52;13.73;;;;;;;10.38;98.98;101760.84;5052728;28;20136;-72
2021/09/14 03:02:50;;;;;;;25.90;11.68;;;;;;;10.36;99.24;101755.63;5053226;28;20517;-72
2021/09/14 03:05:16;;;;;;;22.73;11.70;;;;;;;10.34;99.36;101751.38;5052292;28;20466;-72
2021/09/14 03:07:41;;;;;;;37.47;14.52;;;;;;;10.33;99.55;101746.97;5052991;28;20087;-72
2021/09/14 03:10:07;;;;;;;27.73;12.40;;;;;;;10.29;99.44;101742.88;5052196;28;20028;-72
2021/09/14 03:12:32;;;;;;;26.58;13.43;;;;;;;10.26;99.34;101729.81;5052745;28;20136;-72
2021/09/14 03:14:58;;;;;;;29.90;14.27;;;;;;;10.24;99.60;101722.78;5052516;28;20473;-72
2021/09/14 03:17:23;;;;;;;26.35;12.60;;;;;;;10.21;99.83;101719.50;5051832;28;20033;-72
2021/09/14 03:19:48;;;;;;;29.23;14.73;;;;;;;10.18;99.87;101715.28;5052411;28;20083;-71
2021/09/14 03:22:14;;;;;;;31.00;14.02;;;;;;;10.20;99.63;101713.34;5051986;28;20040;-72
2021/09/14 03:24:39;;;;;;;36.30;15.18;;;;;;;10.19;99.95;101710.78;5052572;28;20041;-72
2021/09/14 03:27:05;;;;;;;50.35;18.50;;;;;;;10.19;100.00;101708.97;5051846;28;20452;-72
2021/09/14 03:29:30;;;;;;;33.50;15.25;;;;;;;10.19;100.00;101711.63;5051296;28;20032;-72
2021/09/14 03:31:55;;;;;;;41.10;15.90;;;;;;;10.19;100.00;101708.13;5051327;28;20037;-72
2021/09/14 03:34:21;;;;;;;38.38;17.52;;;;;;;10.17;100.00;101710.91;5051892;28;20025;-72
2021/09/14 03:36:47;;;;;;;38.67;15.80;;;;;;;10.16;100.00;101705.72;5052161;28;20041;-72
2021/09/14 03:39:12;;;;;;;37.58;15.93;;;;;;;10.11;100.00;101700.72;5051781;28;20068;-72
2021/09/14 03:41:37;;;;;;;41.40;17.67;;;;;;;10.10;100.00;101703.50;5052507;28;20041;-72
2021/09/14 03:44:03;;;;;;;36.22;16.25;;;;;;;10.06;100.00;101709.06;5052430;28;20358;-72
2021/09/14 03:46:28;;;;;;;35.85;14.43;;;;;;;10.02;100.00;101702.25;5052068;28;20401;-72
2021/09/14 03:48:53;;;;;;;43.33;18.65;;;;;;;10.02;100.00;101701.44;5052309;28;20029;-72
2021/09/14 03:51:19;;;;;;;44.20;18.30;;;;;;;10.00;100.00;101698.88;5051759;28;20035;-72
2021/09/14 03:53:44;;;;;;;39.05;16.67;;;;;;;9.99;100.00;101696.34;5052238;28;20037;-72
2021/09/14 03:56:09;;;;;;;48.28;17.05;;;;;;;9.97;100.00;101701.78;5051304;28;20029;-72
2021/09/14 03:58:35;;;;;;;37.67;17.50;;;;;;;9.95;100.00;101694.88;5055502;28;20037;-72
2021/09/14 04:01:00;;;;;;;40.40;16.60;;;;;;;9.92;100.00;101687.97;5056719;28;20389;-72
2021/09/14 04:03:38;;;;;;;43.90;18.70;;;;;;;9.95;100.00;101686.88;5055891;28;20071;-72
2021/09/14 04:06:21;;;;;;;46.10;18.38;;;;;;;9.95;100.00;101694.88;5056557;28;20037;-72
2021/09/14 04:08:53;;;;;;;46.72;18.05;;;;;;;9.91;100.00;101694.22;5056493;28;20107;-71
2021/09/14 04:11:22;;;;;;;44.90;17.58;;;;;;;9.90;100.00;101697.88;5056126;28;20043;-72
2021/09/14 04:13:51;;;;;;;43.83;18.42;;;;;;;9.89;100.00;101697.00;5055879;28;20037;-72
2021/09/14 04:16:18;;;;;;;44.83;18.27;;;;;;;9.88;100.00;101695.31;5055185;28;20538;-72
2021/09/14 04:18:43;;;;;;;44.88;18.65;;;;;;;9.88;100.00;101702.44;5056306;28;20389;-72
2021/09/14 04:21:09;;;;;;;47.08;18.95;;;;;;;9.88;100.00;101700.63;5055332;28;20033;-72
2021/09/14 04:23:34;;;;;;;49.63;19.63;;;;;;;9.88;100.00;101702.44;5056274;28;20067;-72
2021/09/14 04:26:00;;;;;;;51.35;19.08;;;;;;;9.88;100.00;101694.47;5055992;28;20029;-73
2021/09/14 04:28:25;;;;;;;43.78;18.02;;;;;;;9.87;100.00;101692.78;5054970;28;20037;-73
2021/09/14 04:30:51;;;;;;;44.95;18.35;;;;;;;9.86;100.00;101688.41;5055798;28;20033;-72
2021/09/14 04:33:16;;;;;;;52.15;19.88;;;;;;;9.85;100.00;101692.03;5055142;28;20029;-72
2021/09/14 04:35:42;;;;;;;57.10;21.70;;;;;;;9.85;100.00;101686.72;5055821;28;20033;-72
2021/09/14 04:38:07;;;;;;;53.08;22.65;;;;;;;9.87;100.00;101687.47;5055425;28;20029;-73
2021/09/14 04:40:33;;;;;;;54.03;21.10;;;;;;;9.89;100.00;101686.38;5054990;28;20029;-73
2021/09/14 04:42:58;;;;;;;46.03;19.23;;;;;;;9.89;100.00;101689.03;5055287;28;20029;-73
2021/09/14 04:45:24;;;;;;;58.92;21.95;;;;;;;9.91;100.00;101688.06;5054698;28;20040;-73
2021/09/14 04:47:49;;;;;;;58.50;22.00;;;;;;;9.92;100.00;101677.31;5055301;28;20473;-73
2021/09/14 04:50:15;;;;;;;62.97;23.42;;;;;;;9.95;100.00;101682.41;5055008;28;20358;-73
2021/09/14 04:52:40;;;;;;;51.97;19.70;;;;;;;9.96;100.00;101676.16;5055080;28;20553;-72
2021/09/14 04:55:06;;;;;;;62.17;23.65;;;;;;;9.98;100.00;101676.88;5055120;28;20104;-72
2021/09/14 04:57:31;;;;;;;56.78;21.98;;;;;;;9.99;100.00;101675.06;5054806;28;20970;-71
2021/09/14 04:59:57;;;;;;;59.55;23.67;;;;;;;9.99;100.00;101686.53;5055333;28;20082;-71
2021/09/14 05:02:22;;;;;;;60.28;23.25;;;;;;;10.00;100.00;101680.28;5054126;28;20056;-71
2021/09/14 05:04:48;;;;;;;62.85;23.45;;;;;;;10.03;100.00;101679.19;5055065;28;20033;-71
2021/09/14 05:07:13;;;;;;;62.30;23.88;;;;;;;10.05;100.00;101683.41;5054658;28;20040;-72
2021/09/14 05:09:38;;;;;;;58.83;23.40;;;;;;;10.09;100.00;101678.75;5054910;28;20083;-71
2021/09/14 05:12:04;;;;;;;65.07;24.35;;;;;;;10.10;100.00;101672.44;5055033;28;20513;-71
2021/09/14 05:14:29;;;;;;;67.32;24.13;;;;;;;10.11;100.00;101671.50;5054410;28;20032;-71
2021/09/14 05:16:55;;;;;;;69.65;25.23;;;;;;;10.12;100.00;101673.19;5054678;28;20033;-71
2021/09/14 05:19:31;;;;;;;68.25;26.05;;;;;;;10.16;100.00;101685.25;5054311;28;20124;-72
2021/09/14 05:21:59;;;;;;;67.28;25.42;;;;;;;10.18;100.00;101680.69;5054911;28;20112;-71
2021/09/14 05:24:25;;;;;;;62.92;23.80;;;;;;;10.22;100.00;101683.97;5054131;28;20116;-72
2021/09/14 05:26:50;;;;;;;70.70;25.02;;;;;;;10.23;100.00;101689.16;5054777;28;20069;-72
2021/09/14 05:29:16;;;;;;;61.60;23.08;;;;;;;10.24;100.00;101687.38;5053780;28;20073;-72
2021/09/14 05:31:41;;;;;;;68.20;24.58;;;;;;;10.25;100.00;101678.41;5054761;28;20037;-72
2021/09/14 05:34:07;;;;;;;67.50;24.25;;;;;;;10.26;100.00;101672.13;5054381;28;20526;-71
2021/09/14 05:36:32;;;;;;;73.82;25.98;;;;;;;10.28;100.00;101675.50;5053772;28;20033;-72
2021/09/14 05:38:58;;;;;;;71.88;25.95;;;;;;;10.33;100.00;101668.06;5054471;28;20033;-72
2021/09/14 05:41:23;;;;;;;79.20;26.00;;;;;;;10.39;100.00;101658.78;5053837;28;20056;-72
2021/09/14 05:43:48;;;;;;;60.65;25.40;;;;;;;10.43;100.00;101657.56;5054138;28;20037;-72
2021/09/14 05:46:14;;;;;;;76.18;27.73;;;;;;;10.50;100.00;101649.97;5054386;28;20075;-72
2021/09/14 05:48:39;;;;;;;73.88;26.17;;;;;;;10.56;100.00;101650.31;5053575;28;20475;-72
2021/09/14 05:51:05;;;;;;;72.38;27.33;;;;;;;10.62;100.00;101641.03;5054279;28;20047;-72
2021/09/14 05:53:30;;;;;;;67.53;25.23;;;;;;;10.66;100.00;101645.16;5052484;28;20474;-72
2021/09/14 05:55:56;;;;;;;59.88;24.65;;;;;;;10.71;100.00;101647.44;5054174;28;20054;-72
2021/09/14 05:58:21;;;;;;;61.35;24.52;;;;;;;10.74;100.00;101652.53;5053879;28;20076;-72
2021/09/14 06:00:46;;;;;;;54.33;22.98;;;;;;;10.76;100.00;101650.59;5054078;28;20041;-72
2021/09/14 06:03:12;;;;;;;51.15;21.45;;;;;;;10.77;100.00;101647.81;5054358;28;20056;-72
2021/09/14 06:05:37;;;;;;;51.88;22.27;;;;;;;10.79;100.00;101655.66;5053729;28;20032;-72
2021/09/14 06:08:03;;;;;;;50.47;22.85;;;;;;;10.81;100.00;101643.09;5052545;28;20036;-72
2021/09/14 06:10:28;;;;;;;55.53;22.33;;;;;;;10.85;100.00;101651.69;5051796;28;20473;-72
2021/09/14 06:12:54;;;;;;;49.58;22.10;;;;;;;10.87;100.00;101647.94;5053859;28;20166;-71
2021/09/14 06:15:19;;;;;;;47.50;22.05;;;;;;;10.90;100.00;101639.69;5054216;28;20037;-71
2021/09/14 06:17:44;;;;;;;47.42;21.65;;;;;;;10.93;100.00;101628.81;5052954;28;20068;-71
2021/09/14 06:20:11;;;;;;;41.58;20.65;;;;;;;10.99;100.00;101634.59;5053078;28;20031;-71
2021/09/14 06:22:36;;;;;;;44.60;21.08;;;;;;;11.02;100.00;101637.88;5052898;28;20055;-71
2021/09/14 06:25:04;;;;;;;41.80;20.58;;;;;;;11.07;100.00;101637.50;5053659;28;20028;-71
2021/09/14 06:27:29;;;;;;;42.75;19.67;;;;;;;11.14;100.00;101635.19;5052623;28;20047;-71
2021/09/14 06:29:55;;;;;;;39.92;20.10;;;;;;;11.19;100.00;101643.66;5053504;28;20041;-71
2021/09/14 06:32:20;;;;;;;45.22;19.90;;;;;;;11.26;100.00;101636.88;5053264;28;20033;-71
2021/09/14 06:34:46;;;;;;;44.22;19.35;;;;;;;11.32;100.00;101636.38;5052850;28;20028;-71
2021/09/14 06:37:11;;;;;;;34.92;17.63;;;;;;;11.41;100.00;101650.78;5052360;28;20032;-71
2021/09/14 06:39:37;;;;;;;36.92;19.08;;;;;;;11.49;100.00;101645.66;5052760;28;20029;-71
2021/09/14 06:42:04;;;;;;;35.90;17.70;;;;;;;11.59;100.00;101656.44;5053190;28;20032;-71
2021/09/14 06:44:29;;;;;;;33.83;17.35;;;;;;;11.71;100.00;101651.91;5052589;28;20037;-71
2021/09/14 06:46:54;;;;;;;36.28;19.58;;;;;;;11.82;99.77;101660.72;5053123;28;20135;-71
2021/09/14 06:49:20;;;;;;;28.65;17.77;;;;;;;11.94;99.56;101652.69;5053143;28;20025;-71
2021/09/14 06:51:46;;;;;;;30.20;16.73;;;;;;;12.05;98.87;101641.97;5052499;28;20021;-71
2021/09/14 06:54:12;;;;;;;29.52;16.20;;;;;;;12.17;98.34;101640.94;5052872;28;20029;-71
2021/09/14 06:56:37;;;;;;;25.10;15.57;;;;;;;12.24;97.10;101635.06;5052424;28;20527;-71
2021/09/14 06:59:03;;;;;;;26.58;15.43;;;;;;;12.32;96.53;101640.59;5052765;28;20056;-71
2021/09/14 07:01:28;;;;;;;29.52;15.18;;;;;;;12.40;95.79;101639.94;5052056;28;20084;-71
2021/09/14 07:03:54;;;;;;;29.38;15.70;;;;;;;12.44;95.85;101642.22;5051404;28;20087;-72
2021/09/14 07:06:20;;;;;;;24.42;14.60;;;;;;;12.50;95.75;101644.34;5052741;28;20035;-73
2021/09/14 07:08:47;;;;;;;26.85;14.85;;;;;;;12.56;94.93;101637.66;5051950;28;20400;-72
2021/09/14 07:11:15;;;;;;;21.85;14.10;;;;;;;12.62;94.14;101641.63;5052866;28;20040;-71
2021/09/14 07:13:42;;;;;;;24.58;14.02;;;;;;;12.65;93.91;101634.19;5052181;28;20029;-72
2021/09/14 07:16:07;;;;;;;21.13;14.80;;;;;;;12.73;93.72;101643.34;5052816;28;20060;-72
2021/09/14 07:18:33;;;;;;;23.75;15.20;;;;;;;12.76;93.75;101646.59;5034137;28;20489;-72
2021/09/14 07:20:58;;;;;;;23.85;14.65;;;;;;;12.83;94.70;101639.72;5052610;28;20120;-72
2021/09/14 07:23:24;;;;;;;27.08;14.90;;;;;;;12.84;93.21;101636.09;5052611;28;20393;-72
2021/09/14 07:25:49;;;;;;;24.23;14.85;;;;;;;12.88;93.83;101644.66;5051963;28;20115;-71
2021/09/14 07:28:15;;;;;;;25.73;14.52;;;;;;;12.93;93.58;101646.94;5052395;28;20527;-72
2021/09/14 07:30:42;;;;;;;26.95;14.38;;;;;;;12.99;93.50;101638.41;5051427;28;20044;-72
2021/09/14 07:33:09;;;;;;;23.55;14.77;;;;;;;13.03;92.73;101637.13;5051949;28;20504;-72
2021/09/14 07:35:34;;;;;;;24.15;15.18;;;;;;;13.10;92.92;101634.78;5051824;28;20461;-72
2021/09/14 07:38:00;;;;;;;23.70;14.88;;;;;;;13.18;92.10;101627.78;5052433;28;20044;-72
2021/09/14 07:40:26;;;;;;;22.17;15.07;;;;;;;13.30;91.78;101631.19;5052276;28;20033;-71
2021/09/14 07:42:53;;;;;;;26.73;14.95;;;;;;;13.46;90.88;101627.16;5051454;28;20493;-72
2021/09/14 07:45:19;;;;;;;22.00;13.93;;;;;;;13.50;89.51;101624.06;5052396;28;20362;-72
2021/09/14 07:47:44;;;;;;;21.48;13.80;;;;;;;13.60;89.88;101623.22;5051752;28;20048;-72
2021/09/14 07:50:10;;;;;;;23.10;15.18;;;;;;;13.60;90.36;101623.22;5052415;28;20163;-72
2021/09/14 07:52:35;;;;;;;20.73;14.50;;;;;;;13.62;89.71;101621.25;5051654;28;20114;-72
2021/09/14 07:55:01;;;;;;;23.20;15.07;;;;;;;13.64;89.84;101619.28;5052051;28;20082;-73
2021/09/14 07:57:28;;;;;;;20.60;15.07;;;;;;;13.73;89.89;101613.09;5052252;28;20405;-73
2021/09/14 07:59:53;;;;;;;24.70;15.52;;;;;;;13.88;90.56;101613.50;5051611;28;20048;-72
2021/09/14 08:02:19;;;;;;;22.42;14.55;;;;;;;14.11;89.88;101616.72;5063812;28;20056;-73
2021/09/14 08:04:44;;;;;;;18.83;13.77;;;;;;;14.27;87.42;101619.66;5051847;28;20060;-73
2021/09/14 08:07:09;;;;;;;26.05;14.50;;;;;;;14.76;86.42;101624.03;5051906;28;20037;-73
2021/09/14 08:09:35;;;;;;;21.23;14.32;;;;;;;15.67;82.41;101623.19;5051632;28;20095;-73
2021/09/14 08:12:00;;;;;;;19.67;13.70;;;;;;;16.41;79.62;101634.56;5052177;28;20044;-73
2021/09/14 08:14:26;;;;;;;20.42;12.93;;;;;;;16.86;76.93;101630.75;5052119;28;20388;-73
2021/09/14 08:16:52;;;;;;;19.88;12.88;;;;;;;16.92;76.59;101635.50;5051592;28;20529;-73
2021/09/14 08:19:17;;;;;;;23.77;13.77;;;;;;;16.87;76.52;101631.66;5052975;28;20029;-73
2021/09/14 08:21:43;;;;;;;22.48;13.63;;;;;;;16.85;76.30;101628.22;5053176;28;20056;-73
2021/09/14 08:24:09;;;;;;;18.98;13.88;;;;;;;16.96;75.80;101627.13;5052532;28;20447;-73
2021/09/14 08:26:35;;;;;;;23.08;13.80;;;;;;;17.28;77.03;101621.00;5052188;28;20033;-73
2021/09/14 08:29:01;;;;;;;18.65;13.35;;;;;;;17.37;75.17;101621.88;5051993;28;20063;-73
2021/09/14 08:31:26;;;;;;;21.15;14.75;;;;;;;17.25;75.37;101618.66;5052561;28;20087;-73
2021/09/14 08:33:52;;;;;;;18.67;13.70;;;;;;;17.25;75.42;101632.09;5051463;28;20107;-73
2021/09/14 08:36:17;;;;;;;26.10;15.07;;;;;;;17.63;75.64;101637.91;5051997;28;20436;-74
2021/09/14 08:38:44;;;;;;;20.83;14.73;;;;;;;18.02;73.58;101631.03;5051222;28;20029;-74
2021/09/14 08:41:12;;;;;;;18.73;14.48;;;;;;;18.40;72.04;101623.25;5051871;28;20037;-74
2021/09/14 08:43:42;;;;;;;19.08;14.15;;;;;;;18.82;70.27;101622.13;5053481;28;20025;-73
2021/09/14 08:46:07;;;;;;;21.75;14.90;;;;;;;19.62;67.93;101620.19;5055272;28;20469;-73
2021/09/14 08:48:35;;;;;;;19.30;15.05;;;;;;;20.68;64.10;101621.09;5054027;28;20079;-74
2021/09/14 08:51:01;;;;;;;18.33;13.55;;;;;;;21.99;59.21;101622.97;5053794;28;20332;-74
2021/09/14 08:53:27;;;;;;;15.95;13.23;;;;;;;22.72;57.90;101625.34;5055739;28;20045;-75
2021/09/14 08:55:53;;;;;;;16.10;13.15;;;;;;;23.45;54.68;101622.09;5053540;28;20036;-74
2021/09/14 08:58:18;;;;;;;15.93;12.80;;;;;;;24.45;51.85;101613.97;5054862;28;20496;-74
2021/09/14 09:00:44;;;;;;;18.58;12.65;;;;;;;24.90;49.21;101613.22;5054658;28;20041;-74
2021/09/14 09:03:09;;;;;;;15.30;12.98;;;;;;;24.66;48.11;101609.31;5055212;28;20508;-75
2021/09/14 09:05:39;;;;;;;16.20;13.88;;;;;;;24.74;49.91;101617.25;5053738;28;20473;-74
2021/09/14 09:08:25;;;;;;;16.38;12.90;;;;;;;24.97;48.85;101622.16;5054522;28;20033;-75
2021/09/14 09:11:04;;;;;;;16.80;12.88;;;;;;;24.91;47.98;101625.75;5054257;28;20537;-75
2021/09/14 09:13:46;;;;;;;19.25;12.48;;;;;;;24.88;49.67;101626.19;5054976;28;20025;-73
2021/09/14 09:16:21;;;;;;;15.90;12.38;;;;;;;24.22;49.40;101622.56;5053767;28;20036;-74
2021/09/14 09:18:51;;;;;;;18.27;13.00;;;;;;;23.47;52.60;101614.59;5054539;28;20029;-74
2021/09/14 09:21:16;;;;;;;19.57;12.47;;;;;;;23.79;52.77;101619.41;5053626;28;20127;-74
2021/09/14 09:23:42;;;;;;;17.75;11.95;;;;;;;24.65;48.94;101610.38;5055262;28;20126;-74
2021/09/14 09:26:08;;;;;;;16.08;11.82;;;;;;;25.48;47.30;101604.13;5053078;28;20396;-72
2021/09/14 09:28:34;;;;;;;18.15;12.20;;;;;;;26.20;44.79;101602.94;5054381;28;20040;-73
2021/09/14 09:31:09;;;;;;;16.95;12.30;;;;;;;26.72;45.23;101610.78;5053847;28;20028;-73
2021/09/14 09:33:35;;;;;;;13.40;11.48;;;;;;;26.70;43.93;101604.72;5054313;28;20029;-73
2021/09/14 09:36:08;;;;;;;17.38;11.10;;;;;;;27.02;43.16;101605.38;5053184;28;20029;-73
2021/09/14 09:38:57;;;;;;;22.80;11.40;;;;;;;27.13;42.34;101595.56;5054559;28;20029;-73
2021/09/14 09:41:23;;;;;;;13.70;11.50;;;;;;;27.01;43.03;101591.94;5054471;28;20029;-74
2021/09/14 09:43:48;;;;;;;17.40;11.30;;;;;;;26.78;43.89;101598.13;5053806;28;20488;-73
2021/09/14 09:46:21;;;;;;;13.65;10.57;;;;;;;26.86;42.44;101595.91;5054693;28;20446;-73
2021/09/14 09:48:48;;;;;;;13.60;10.07;;;;;;;27.31;42.08;101599.31;5054384;28;20027;-73
2021/09/14 09:51:14;;;;;;;12.52;10.77;;;;;;;27.23;43.13;101597.72;5054289;28;20033;-73
2021/09/14 09:53:39;;;;;;;12.65;10.15;;;;;;;27.98;41.71;101599.13;5052721;28;20036;-73
2021/09/14 09:56:06;;;;;;;17.33;11.48;;;;;;;28.32;39.60;101599.34;5052611;28;20035;-73
2021/09/14 09:58:32;;;;;;;16.02;11.02;;;;;;;28.35;40.42;101593.38;5053829;28;20499;-73
2021/09/14 10:01:11;;;;;;;13.95;10.88;;;;;;;27.96;40.53;101582.06;5053515;28;20037;-72
2021/09/14 10:03:45;;;;;;;14.38;10.65;;;;;;;27.60;42.32;101586.66;5054223;28;20049;-73
2021/09/14 10:06:12;;;;;;;15.85;10.93;;;;;;;26.63;44.65;101579.38;5053539;28;20106;-73
2021/09/14 10:08:38;;;;;;;14.18;11.30;;;;;;;26.23;45.73;101577.94;5054033;28;20033;-73
2021/09/14 10:11:03;;;;;;;14.68;10.95;;;;;;;26.74;44.65;101570.47;5053351;28;20116;-74
2021/09/14 10:13:40;;;;;;;15.68;11.45;;;;;;;27.40;43.70;101574.16;5053863;28;20057;-73
2021/09/14 10:16:07;;;;;;;16.88;11.70;;;;;;;27.79;40.99;101574.56;5053333;28;20033;-73
2021/09/14 10:18:34;;;;;;;13.98;10.45;;;;;;;28.18;41.32;101578.78;5054114;28;20036;-73
2021/09/14 10:21:02;;;;;;;14.07;9.90;;;;;;;28.35;41.42;101578.84;5052980;28;20029;-73
2021/09/14 10:23:34;;;;;;;15.88;9.70;;;;;;;28.37;41.08;101574.81;5053854;28;20044;-73
2021/09/14 10:26:08;;;;;;;14.32;10.60;;;;;;;28.15;43.12;101572.69;5053126;28;20029;-73
2021/09/14 10:28:50;;;;;;;13.27;9.93;;;;;;;28.31;41.69;101573.88;5053379;28;20094;-73
2021/09/14 10:31:18;;;;;;;11.13;9.15;;;;;;;28.65;38.98;101567.78;5052963;28;20477;-73
2021/09/14 10:33:43;;;;;;;16.60;9.43;;;;;;;28.64;39.15;101572.41;5053224;28;20048;-73
2021/09/14 10:36:15;;;;;;;13.23;9.93;;;;;;;28.56;39.98;101572.75;5052890;28;20469;-73
2021/09/14 10:38:49;;;;;;;13.88;10.23;;;;;;;28.73;40.21;101575.59;5053229;28;20029;-73
2021/09/14 10:41:15;;;;;;;11.98;9.57;;;;;;;28.28;39.81;101568.06;5052574;28;20037;-73
2021/09/14 10:43:52;;;;;;;13.88;10.27;;;;;;;27.72;42.21;101564.81;5053289;28;20044;-73
2021/09/14 10:46:22;;;;;;;17.08;9.65;;;;;;;27.90;42.10;101559.25;5052662;28;20029;-73
2021/09/14 10:48:50;;;;;;;15.35;8.70;;;;;;;28.11;40.74;101557.84;5053238;28;20102;-73
2021/09/14 10:51:17;;;;;;;12.38;9.30;;;;;;;28.17;41.11;101552.47;5052628;28;20045;-73
2021/09/14 10:54:02;;;;;;;17.33;9.70;;;;;;;27.47;40.80;101541.28;5052759;28;20397;-73
2021/09/14 10:56:29;;;;;;;15.00;10.63;;;;;;;27.23;44.75;101543.06;5052589;28;20052;-73
2021/09/14 10:58:55;;;;;;;16.10;9.88;;;;;;;27.45;43.17;101540.66;5052933;28;20066;-73
2021/09/14 11:01:27;;;;;;;13.75;9.88;;;;;;;27.85;42.50;101533.69;5052669;28;20025;-73
2021/09/14 11:04:01;;;;;;;14.65;8.20;;;;;;;27.85;41.17;101528.22;5053009;28;20085;-73
2021/09/14 11:06:28;;;;;;;11.05;7.68;;;;;;;27.44;42.24;101531.66;5051466;28;20048;-72
2021/09/14 11:09:02;;;;;;;12.80;9.07;;;;;;;27.99;41.06;101535.13;5053165;28;20552;-73
2021/09/14 11:11:27;;;;;;;12.18;8.65;;;;;;;28.19;41.73;101520.25;5052800;28;20039;-73
2021/09/14 11:13:54;;;;;;;15.63;8.90;;;;;;;28.06;41.56;101522.16;5052949;28;20119;-72
2021/09/14 11:16:19;;;;;;;9.70;7.20;;;;;;;28.44;41.52;101509.84;5052121;28;20029;-73
2021/09/14 11:18:45;;;;;;;12.32;7.57;;;;;;;28.15;41.31;101504.31;5052504;28;20048;-72
2021/09/14 11:21:13;;;;;;;11.20;8.27;;;;;;;27.77;41.75;101504.81;5051702;28;20029;-72
2021/09/14 11:23:41;;;;;;;17.27;8.43;;;;;;;28.46;39.31;101499.47;5052401;28;20029;-73
2021/09/14 11:26:09;;;;;;;12.95;7.85;;;;;;;28.81;40.21;101494.97;5051960;28;20370;-73
2021/09/14 11:28:36;;;;;;;11.57;8.13;;;;;;;29.01;38.78;101503.56;5053069;28;20206;-73
2021/09/14 11:31:04;;;;;;;14.27;8.00;;;;;;;28.87;37.13;101498.63;5051782;28;20076;-73
2021/09/14 11:33:30;;;;;;;11.52;7.95;;;;;;;28.87;39.76;101496.72;5052564;28;20025;-73
2021/09/14 11:36:00;;;;;;;12.07;8.15;;;;;;;28.70;39.24;101499.41;5052382;28;20036;-73
2021/09/14 11:38:27;;;;;;;19.92;8.30;;;;;;;29.09;40.06;101501.50;5052261;28;20037;-73
2021/09/14 11:40:53;;;;;;;10.95;7.82;;;;;;;29.14;38.19;101487.88;5052135;28;20116;-74
2021/09/14 11:43:22;;;;;;;15.77;8.82;;;;;;;28.94;37.88;101493.84;5050498;28;20039;-73
2021/09/14 11:45:49;;;;;;;13.25;8.18;;;;;;;28.76;39.59;101492.97;5052353;28;20044;-73
2021/09/14 11:48:17;;;;;;;17.85;10.13;;;;;;;28.84;38.83;101486.25;5050507;28;20448;-73
2021/09/14 11:50:42;;;;;;;12.13;7.55;;;;;;;28.49;40.29;101487.22;5052325;28;20028;-72
2021/09/14 11:53:13;;;;;;;9.10;7.18;;;;;;;28.69;40.16;101477.78;5050420;28;20039;-73
2021/09/14 11:55:41;;;;;;;15.18;7.78;;;;;;;29.09;39.58;101474.09;5052204;28;20071;-73
2021/09/14 11:58:07;;;;;;;13.55;9.32;;;;;;;29.19;38.94;101477.84;5051537;28;20029;-73
2021/09/14 12:00:40;;;;;;;12.63;8.00;;;;;;;28.69;40.21;101484.06;5051968;28;20044;-73
2021/09/14 12:03:06;;;;;;;13.65;9.52;;;;;;;28.50;39.90;101477.94;5051390;28;20064;-73